• Join FlightAware (Why Join?)
  • Login
  • US Flag 
05:03PM EST


 

Airport Tracker/Info


-or-


 

Live Flight TrackerFlight Track Log ✈ LYM752 ✈ 15-Oct-2013 ✈ KGJT - KDEN

Flight Track Log - Related Links

Times and Time Zones

All times are in EDT time to prevent confusion due to time zone crossing. See the LYM752 flight status page for this flight to view local times or setup timezone preferences in your user account.

Time Position Orientation Groundspeed Altitude Reporting Facility
EDT Latitude Longitude Course Direction KTS MPH feet Rate Location/Type
10:17AM 39.0878 -108.5019 168° South 133 153 6,300  Level Denver Center
10:18AM 39.0561 -108.4931 168° South 121 139 7,600 1,140 Climbing Denver Center
10:19AM 39.0219 -108.4811 165° South 119 137 8,700 960 Climbing Denver Center
10:20AM 38.9906 -108.4658 159° South 121 139 9,600 1,020 Climbing Denver Center
10:21AM 38.9564 -108.4497 160° South 122 140 10,800 1,080 Climbing Denver Center
10:22AM 38.9242 -108.4347 160° South 124 143 11,900 900 Climbing Denver Center
10:23AM 38.9069 -108.3956 119° Southeast 134 154 12,700 840 Climbing Denver Center
10:24AM 38.8944 -108.3456 108° East 137 158 13,700 900 Climbing Denver Center
10:25AM 38.8783 -108.2994 114° Southeast 142 163 14,600 840 Climbing Denver Center
10:26AM 38.8639 -108.2531 112° Southeast 141 162 15,500 780 Climbing Denver Center
10:27AM 38.8503 -108.2086 111° Southeast 141 162 16,200 780 Climbing Denver Center
10:28AM 38.8319 -108.1556 114° Southeast 146 168 17,100 720 Climbing Denver Center
10:29AM 38.8175 -108.1117 113° Southeast 142 163 17,700 600 Climbing Denver Center
10:30AM 38.7997 -108.0567 113° Southeast 150 173 18,400 540 Climbing Denver Center
10:31AM 38.7831 -108.0078 114° Southeast 156 180 18,900 240 Climbing Denver Center
10:32AM 38.7594 -107.9436 115° Southeast 180 207 19,000  Climbing Denver Center
10:33AM 38.7414 -107.8806 110° East 196 226 19,000  Level Denver Center
10:35AM 38.7175 -107.8050 112° Southeast 204 235 19,000  Level Denver Center
10:36AM 38.6942 -107.7392 114° Southeast 210 242 19,000  Level Denver Center
10:37AM 38.6708 -107.6758 115° Southeast 208 239 19,000  Level Denver Center
10:38AM 38.6456 -107.6000 113° Southeast 208 239 19,100  Climbing Denver Center
10:39AM 38.6208 -107.5353 116° Southeast 211 243 19,000 -60 Descending Denver Center
10:40AM 38.5947 -107.4578 113° Southeast 212 244 19,000  Level Denver Center
10:41AM 38.5742 -107.3892 111° Southeast 216 249 19,100  Climbing Denver Center
10:42AM 38.5428 -107.3153 118° Southeast 213 245 19,000 -120 Descending Denver Center
10:43AM 38.5178 -107.2492 116° Southeast 216 249 18,900  Descending Denver Center
10:44AM 38.4942 -107.1775 113° Southeast 217 250 19,000  Climbing Denver Center
10:45AM 38.4728 -107.1064 111° Southeast 216 249 18,900 -60 Descending Denver Center
10:46AM 38.4486 -107.0372 114° Southeast 215 247 18,900  Level Denver Center
10:47AM 38.4725 -106.9492 71° East 228 262 19,000  Climbing Denver Center
10:48AM 38.4983 -106.8775 65° Northeast 222 255 19,000  Level Denver Center
10:49AM 38.5228 -106.8042 67° East 224 258 19,000 -60 Level Denver Center
10:50AM 38.5494 -106.7308 65° Northeast 227 261 18,900 -60 Descending Denver Center
10:51AM 38.5744 -106.6578 66° East 225 259 18,900  Level Denver Center
10:52AM 38.5994 -106.5842 66° East 226 260 19,000  Climbing Denver Center
10:53AM 38.6300 -106.4950 66° East 228 262 19,000  Level Denver Center
10:54AM 38.6561 -106.4203 66° East 229 264 19,000  Level Denver Center
10:55AM 38.6814 -106.3475 66° East 226 260 19,000  Level Denver Center
10:56AM 38.7069 -106.2717 67° East 230 265 19,100 -60 Climbing Denver Center
10:57AM 38.7292 -106.1950 70° East 230 265 18,900 -60 Descending Denver Center
10:58AM 38.7550 -106.1186 67° East 232 267 19,000  Climbing Denver Center
10:59AM 38.7831 -106.0294 68° East 229 264 18,900  Descending Denver Center
11:00AM 38.8228 -105.9708 49° Northeast 226 260 19,000  Climbing Denver Center
11:01AM 38.8675 -105.9056 49° Northeast 220 253 19,000  Level Denver Center
11:02AM 38.9067 -105.8486 49° Northeast 225 259 19,000  Level Denver Center
11:03AM 38.9531 -105.7789 49° Northeast 226 260 19,000  Level Denver Center
11:04AM 38.9911 -105.7192 51° Northeast 225 259 19,000 -120 Level Denver Center
11:06AM 39.0331 -105.6636 46° Northeast 226 260 18,800 -420 Descending Denver Center
11:07AM 39.0850 -105.5950 46° Northeast 237 273 18,200 -420 Descending Denver Center
11:08AM 39.1278 -105.5308 49° Northeast 245 282 18,000 -480 Descending Denver Center
11:09AM 39.1747 -105.4492 53° Northeast 246 283 17,300 -720 Descending Denver Center
11:10AM 39.2156 -105.3817 52° Northeast 240 276 16,600 -840 Descending Denver Center
11:11AM 39.2592 -105.3128 51° Northeast 246 283 15,600 -840 Descending Denver Center
11:12AM 39.2842 -105.2261 70° East 237 273 14,900 -780 Descending Denver Center
11:13AM 39.3069 -105.1447 70° East 242 278 14,000 -900 Descending Denver Center
11:14AM 39.3344 -105.0628 67° East 235 270 13,100 -540 Descending Denver Center
11:15AM 39.3586 -104.9897 67° East 223 257 13,000 -60 Descending Denver Center
11:16AM 39.3833 -104.9164 66° East 208 239 13,000  Level Denver Center
11:17AM 39.4044 -104.8494 68° East 202 232 13,000 -480 Level Denver Center
11:18AM 39.4431 -104.7836 53° Northeast 219 252 12,100 -1,020 Descending Denver Center
11:19AM 39.4847 -104.7278 46° Northeast 217 250 11,000 -900 Descending Denver Center
11:20AM 39.5369 -104.6917 28° Northeast 212 244 10,300 -540 Descending Denver Center
11:21AM 39.5925 -104.6619 22° Northeast 201 231 9,900 -540 Descending Denver Center
11:22AM 39.6433 -104.6647 358° North 185 213 9,200 -600 Descending Denver Center
11:23AM 39.6972 -104.6606 North 182 209 8,700 -720 Descending Denver Center
11:24AM 39.7372 -104.6614 359° North 150 173 7,700 -1,020 Descending Denver Center
11:25AM 39.7786 -104.6617 360° North 140 161 6,600 -900 Descending Denver Center
11:26AM 39.8144 -104.6611 North 131 151 5,900 -600 Descending Denver Center
11:27AM 39.8450 -104.6611 360° North 104 120 5,400 -540 Descending Denver Center
11:29AM 39.8500 -104.6667 347° North  Level FlightAware Approximate
11:36AM 39.8617 -104.6732 347° North  Level Estimated
11:37AM 39.8617 -104.6732 347° North  Level Estimated
11:38AM 39.8617 -104.6732 347° North  Level Estimated